»·PEaware :: WAT169 KDEN-KELP

WAT169 :: KDEN-KELP

FLIGHT INFORMATION

Flight Status: Arrived
Operator:
Walker Air Transport
More flights by this operator :: More flights under this callsign
Pilot: Marty P. (27464)
Aircraft: BOEING 737-800
(B738)
More flights by this aircraft type
Origin: KDEN Denver Intl
United States
Destination: KELP El Paso Intl
United States
More flights between these airports :: More routes between these airports
Route: +SUDDZ1 SUDDZ ESPAN SLNNK WAZKO1
File this flight plan on PilotEdge
Remarks:
Altitude:
(Current/Filed)
38,000ft
Speed:
(Current/Filed)
480kts
Departed: 10-Oct-20 06:26 PM
Arrived: 10-Oct-20 07:49 PM
Distance/Time
Traveled:
491nm/1:22
Distance/Time
To Go:
Arrived

Flight Plot

Page will automatically refresh every two minutes.

Flight plan parsing failed; only flown route is shown


Map Options




Map Legend


Flown Route
Filed Route
Departure Airport
Arrival Airport
Navaid (VOR, NDB)
Fix

Horizontal Profiles

Position Reports

Time Latitude Longitude Heading Altitude Ground
Speed
10-Oct-20 18:08 39.863575 -104.677852 177 5444ft 0kts
10-Oct-20 18:09 39.863575 -104.677852 177 5444ft 0kts
10-Oct-20 18:10 39.863575 -104.677852 177 5444ft 0kts
10-Oct-20 18:11 39.863994 -104.677871 177 5444ft 2kts
10-Oct-20 18:12 39.864565 -104.677746 218 5444ft 2kts
10-Oct-20 18:14 39.864769 -104.677174 272 5444ft 1kts
10-Oct-20 18:15 39.864769 -104.677145 270 5444ft 0kts
10-Oct-20 18:16 39.864771 -104.677360 270 5444ft 3kts
10-Oct-20 18:17 39.864781 -104.679031 270 5444ft 5kts
10-Oct-20 18:18 39.864757 -104.681233 252 5444ft 10kts
10-Oct-20 18:19 39.864259 -104.682956 269 5444ft 0kts
10-Oct-20 18:20 39.863737 -104.683889 186 5444ft 9kts
10-Oct-20 18:21 39.860471 -104.683911 177 5444ft 8kts
10-Oct-20 18:22 39.857262 -104.683990 180 5444ft 26kts
10-Oct-20 18:23 39.850582 -104.684067 180 5444ft 21kts
10-Oct-20 18:24 39.843976 -104.684129 181 5444ft 21kts
10-Oct-20 18:25 39.841773 -104.684174 180 5444ft 4kts
10-Oct-20 18:26 39.840701 -104.691702 270 5444ft 78kts
10-Oct-20 18:26 39.841904 -104.739216 267 6098ft 195kts
10-Oct-20 18:28 39.811088 -104.826368 234 8537ft 254kts
10-Oct-20 18:28 39.776207 -104.890466 220 10329ft 283kts
10-Oct-20 18:30 39.673482 -104.916738 170 12680ft 362kts
10-Oct-20 18:30 39.593068 -104.880106 151 15195ft 382kts
10-Oct-20 18:32 39.477344 -104.825543 177 18180ft 389kts
10-Oct-20 18:32 39.386978 -104.825587 186 20121ft 396kts
10-Oct-20 18:33 39.275633 -104.832191 186 22257ft 407kts
10-Oct-20 18:34 39.161154 -104.839789 190 24178ft 416kts
10-Oct-20 18:35 39.047733 -104.870654 199 25936ft 421kts
10-Oct-20 18:36 38.934501 -104.912191 200 27517ft 428kts
10-Oct-20 18:37 38.819532 -104.956206 201 28966ft 436kts
10-Oct-20 18:38 38.702718 -105.001192 201 30240ft 444kts
10-Oct-20 18:39 38.583669 -105.046736 202 31577ft 446kts
10-Oct-20 18:40 38.465886 -105.091767 202 33060ft 442kts
10-Oct-20 18:41 38.348700 -105.136474 202 34479ft 437kts
10-Oct-20 18:42 38.233609 -105.180236 202 35894ft 428kts
10-Oct-20 18:43 38.120652 -105.223079 203 37049ft 422kts
10-Oct-20 18:44 38.009107 -105.265253 203 37967ft 418kts
10-Oct-20 18:45 37.897300 -105.311473 208 38104ft 425kts
10-Oct-20 18:46 37.788955 -105.373690 210 38155ft 433kts
10-Oct-20 18:47 37.679601 -105.439083 210 38155ft 438kts
10-Oct-20 18:48 37.569373 -105.505323 210 38155ft 441kts
10-Oct-20 18:49 37.458858 -105.571648 210 38155ft 442kts
10-Oct-20 18:50 37.347886 -105.638066 210 38155ft 442kts
10-Oct-20 18:51 37.236551 -105.704387 210 38154ft 444kts
10-Oct-20 18:52 37.125270 -105.770510 210 38155ft 445kts
10-Oct-20 18:53 37.013530 -105.836719 210 38156ft 444kts
10-Oct-20 18:54 36.901953 -105.902628 210 38164ft 444kts
10-Oct-20 18:55 36.790383 -105.968372 210 38182ft 444kts
10-Oct-20 18:56 36.679035 -106.033733 210 38182ft 443kts
10-Oct-20 18:57 36.568024 -106.098689 210 38183ft 442kts
10-Oct-20 18:58 36.456955 -106.163476 210 38188ft 441kts
10-Oct-20 18:59 36.346068 -106.227960 210 38193ft 441kts
10-Oct-20 19:00 36.235036 -106.292323 210 38200ft 441kts
10-Oct-20 19:01 36.122910 -106.352531 204 38202ft 446kts
10-Oct-20 19:02 36.004010 -106.396347 202 38201ft 447kts
10-Oct-20 19:03 35.884270 -106.438270 202 38190ft 447kts
10-Oct-20 19:04 35.764475 -106.479656 201 38183ft 448kts
10-Oct-20 19:05 35.644608 -106.520828 201 38182ft 448kts
10-Oct-20 19:06 35.524859 -106.561794 201 38182ft 448kts
10-Oct-20 19:07 35.405221 -106.602618 201 38126ft 449kts
10-Oct-20 19:08 35.285085 -106.643453 201 38091ft 448kts
10-Oct-20 19:09 35.164874 -106.684111 200 38092ft 449kts
10-Oct-20 19:10 35.044680 -106.724666 200 38093ft 449kts
10-Oct-20 19:11 34.925054 -106.764943 200 38100ft 446kts
10-Oct-20 19:12 34.806384 -106.804749 200 38096ft 431kts
10-Oct-20 19:13 34.695889 -106.841634 200 38120ft 411kts
10-Oct-20 19:14 34.584152 -106.879014 200 38120ft 417kts
10-Oct-20 19:15 34.473363 -106.915867 200 38125ft 413kts
10-Oct-20 19:16 34.362511 -106.952710 200 38132ft 415kts
10-Oct-20 19:17 34.251484 -106.989449 200 38138ft 414kts
10-Oct-20 19:18 34.140915 -107.025979 200 38124ft 412kts
10-Oct-20 19:19 34.030487 -107.062327 200 38109ft 413kts
10-Oct-20 19:20 33.920143 -107.098597 199 38112ft 417kts
10-Oct-20 19:21 33.806910 -107.135708 199 36736ft 417kts
10-Oct-20 19:22 33.696443 -107.171755 199 34922ft 419kts
10-Oct-20 19:23 33.582780 -107.208845 199 33119ft 429kts
10-Oct-20 19:24 33.465718 -107.246968 198 31322ft 457kts
10-Oct-20 19:25 33.338026 -107.288369 196 29134ft 478kts
10-Oct-20 19:26 33.208820 -107.319895 193 26981ft 471kts
10-Oct-20 19:27 33.082390 -107.350188 193 24985ft 462kts
10-Oct-20 19:28 32.956327 -107.361674 168 22979ft 461kts
10-Oct-20 19:29 32.846980 -107.283874 146 21702ft 464kts
10-Oct-20 19:30 32.745113 -107.193482 146 20693ft 454kts
10-Oct-20 19:31 32.644536 -107.104165 146 19690ft 447kts
10-Oct-20 19:32 32.546314 -107.017113 146 19090ft 430kts
10-Oct-20 19:33 32.458685 -106.944293 147 17550ft 365kts
10-Oct-20 19:34 32.377410 -106.876759 147 15796ft 353kts
10-Oct-20 19:35 32.297798 -106.810566 147 14092ft 347kts
10-Oct-20 19:36 32.219720 -106.745771 147 12389ft 340kts
10-Oct-20 19:37 32.143351 -106.682533 147 11035ft 331kts
10-Oct-20 19:38 32.061629 -106.631105 136 10140ft 335kts
10-Oct-20 19:39 32.020782 -106.532003 112 9163ft 337kts
10-Oct-20 19:40 31.982633 -106.446548 126 8963ft 259kts
10-Oct-20 19:41 31.940965 -106.376611 125 7650ft 258kts
10-Oct-20 19:42 31.900826 -106.308579 125 6654ft 252kts
10-Oct-20 19:43 31.864114 -106.248718 141 6352ft 181kts
10-Oct-20 19:44 31.819808 -106.241385 212 6386ft 162kts
10-Oct-20 19:45 31.797440 -106.285562 267 4971ft 158kts
10-Oct-20 19:46 31.799505 -106.337004 271 4446ft 164kts
10-Oct-20 19:47 31.801707 -106.381966 272 3940ft 87kts
10-Oct-20 19:48 31.799947 -106.388418 254 3931ft 10kts
10-Oct-20 19:49 31.800768 -106.392726 237 3928ft 4kts

Navigation Log

Ident Type
Flight plan parsing failed, navigation log unavailable